createdAt,value
2019-01-29T00:00:30.399Z,0.97
2019-01-29T00:03:02.062Z,0.99
2019-01-29T00:05:33.774Z,1.02
2019-01-29T00:08:05.345Z,1.05
2019-01-29T00:10:37.083Z,1.03
2019-01-29T00:13:08.730Z,1.04
2019-01-29T00:15:40.381Z,1.11
2019-01-29T00:18:12.047Z,1.17
2019-01-29T00:20:43.766Z,1.23
2019-01-29T00:23:15.350Z,1.27
2019-01-29T00:25:47.014Z,1.27
2019-01-29T00:28:18.827Z,1.25
2019-01-29T00:30:50.512Z,1.30
2019-01-29T00:33:22.209Z,1.38
2019-01-29T00:35:53.792Z,1.46
2019-01-29T00:38:25.440Z,1.44
2019-01-29T00:40:57.032Z,1.46
2019-01-29T00:43:28.788Z,1.51
2019-01-29T00:46:00.373Z,1.57
2019-01-29T00:48:31.939Z,1.55
2019-01-29T00:51:03.646Z,1.56
2019-01-29T00:53:35.308Z,1.65
2019-01-29T00:56:06.890Z,1.65
2019-01-29T00:58:38.469Z,1.58
2019-01-29T01:01:10.063Z,1.57
2019-01-29T01:03:41.694Z,1.59
2019-01-29T01:06:13.285Z,1.63
2019-01-29T01:08:44.855Z,1.61
2019-01-29T01:11:16.517Z,1.63
2019-01-29T01:13:48.160Z,1.64
2019-01-29T01:16:20.146Z,1.56
2019-01-29T01:18:52.201Z,1.61
2019-01-29T01:21:23.782Z,1.67
2019-01-29T01:23:55.359Z,1.72
2019-01-29T01:26:27.016Z,1.71
2019-01-29T01:28:58.596Z,1.72
2019-01-29T01:31:30.187Z,1.75
2019-01-29T01:34:01.774Z,1.79
2019-01-29T01:36:33.454Z,1.79
2019-01-29T01:39:08.262Z,1.75
2019-01-29T01:41:39.860Z,1.75
2019-01-29T01:44:11.428Z,1.74
2019-01-29T01:46:43.022Z,1.82
2019-01-29T01:49:14.666Z,1.77
2019-01-29T01:51:46.293Z,1.77
2019-01-29T01:54:21.151Z,1.79
2019-01-29T01:56:53.117Z,1.82
2019-01-29T01:59:25.042Z,1.87
2019-01-29T02:01:56.622Z,1.83
2019-01-29T02:04:28.256Z,1.72
2019-01-29T02:06:59.922Z,1.76
2019-01-29T02:09:31.551Z,1.81
2019-01-29T02:12:03.127Z,1.89
2019-01-29T02:14:34.699Z,1.92
2019-01-29T02:17:06.368Z,1.85
2019-01-29T02:19:38.002Z,1.89
2019-01-29T02:22:09.599Z,1.76
2019-01-29T02:24:41.244Z,1.75
2019-01-29T02:27:12.903Z,1.74
2019-01-29T02:29:44.846Z,1.48
2019-01-29T02:32:17.695Z,1.12
2019-01-29T02:34:49.324Z,0.93
2019-01-29T02:37:21.295Z,1.03
2019-01-29T02:39:53.101Z,0.82
2019-01-29T02:42:25.057Z,0.77
2019-01-29T02:44:56.687Z,0.77
2019-01-29T02:47:29.319Z,0.78
2019-01-29T02:50:00.934Z,0.81
2019-01-29T02:52:32.615Z,0.93
2019-01-29T02:55:04.193Z,0.86
2019-01-29T02:57:35.841Z,0.84
2019-01-29T03:00:10.700Z,0.93
2019-01-29T03:02:42.407Z,0.98
2019-01-29T03:05:14.174Z,0.91
2019-01-29T03:07:45.830Z,0.96
2019-01-29T03:10:19.432Z,0.95
2019-01-29T03:12:51.214Z,0.96
2019-01-29T03:15:25.758Z,0.93
2019-01-29T03:17:57.490Z,0.94
2019-01-29T03:20:29.042Z,0.99
2019-01-29T03:23:00.670Z,0.98
2019-01-29T03:25:32.300Z,1.00
2019-01-29T03:28:04.113Z,1.04
2019-01-29T03:30:35.755Z,1.00
2019-01-29T03:33:07.332Z,1.02
2019-01-29T03:35:38.967Z,1.04
2019-01-29T03:38:10.536Z,1.00
2019-01-29T03:40:42.122Z,1.05
2019-01-29T03:43:13.707Z,1.01
2019-01-29T03:45:45.331Z,0.89
2019-01-29T03:48:16.919Z,1.00
2019-01-29T03:50:48.854Z,0.97
2019-01-29T03:53:20.505Z,1.03
2019-01-29T03:55:52.218Z,1.08
2019-01-29T03:58:23.960Z,1.05
2019-01-29T04:00:55.504Z,1.02
2019-01-29T04:03:27.149Z,1.07
2019-01-29T04:05:58.775Z,1.03
2019-01-29T04:08:30.430Z,1.05
2019-01-29T04:11:02.056Z,1.06
2019-01-29T04:13:33.687Z,1.07
2019-01-29T04:16:05.240Z,1.03
2019-01-29T04:18:36.883Z,0.98
2019-01-29T04:21:08.498Z,1.00
2019-01-29T04:23:47.447Z,1.01
2019-01-29T04:26:13.360Z,1.00
2019-01-29T04:28:44.924Z,0.97
2019-01-29T04:31:16.482Z,0.96
2019-01-29T04:33:48.171Z,0.99
2019-01-29T04:36:20.070Z,0.94
2019-01-29T04:38:52.011Z,0.92
2019-01-29T04:41:23.557Z,0.97
2019-01-29T04:43:55.128Z,0.95
2019-01-29T04:46:26.697Z,0.96
2019-01-29T04:48:58.271Z,0.88
2019-01-29T04:51:29.839Z,0.96
2019-01-29T04:54:01.518Z,0.93
2019-01-29T04:56:33.136Z,0.97
2019-01-29T04:59:04.788Z,0.94
2019-01-29T05:01:36.422Z,1.02
2019-01-29T05:04:08.011Z,1.07
2019-01-29T05:06:40.104Z,1.04
2019-01-29T05:09:11.754Z,1.05
2019-01-29T05:11:43.326Z,1.03
2019-01-29T05:14:14.893Z,1.03
2019-01-29T05:16:46.452Z,1.03
2019-01-29T05:19:18.325Z,1.08
2019-01-29T05:21:50.067Z,1.08
2019-01-29T05:24:22.018Z,1.02
2019-01-29T05:26:53.575Z,1.07
2019-01-29T05:29:25.226Z,1.02
2019-01-29T05:31:56.813Z,1.06
2019-01-29T05:34:28.456Z,1.04
2019-01-29T05:37:00.094Z,0.98
2019-01-29T05:39:31.680Z,1.02
2019-01-29T05:42:03.275Z,1.00
2019-01-29T05:44:34.843Z,1.02
2019-01-29T05:47:06.508Z,0.92
2019-01-29T05:49:38.086Z,0.98
2019-01-29T05:52:11.494Z,0.97
2019-01-29T05:54:43.687Z,0.92
2019-01-29T05:57:15.252Z,0.99
2019-01-29T05:59:46.913Z,0.98
2019-01-29T06:02:18.836Z,0.97
2019-01-29T06:04:50.476Z,0.97
2019-01-29T06:07:22.232Z,0.96
2019-01-29T06:09:53.812Z,0.95
2019-01-29T06:12:25.765Z,0.99
2019-01-29T06:14:57.348Z,0.96
2019-01-29T06:17:28.953Z,1.00
2019-01-29T06:20:00.632Z,1.01
2019-01-29T06:22:32.261Z,1.01
2019-01-29T06:25:03.857Z,1.07
2019-01-29T06:27:35.843Z,1.05
2019-01-29T06:30:08.740Z,1.04
2019-01-29T06:32:40.326Z,1.06
2019-01-29T06:35:13.507Z,1.15
2019-01-29T06:37:45.210Z,1.11
2019-01-29T06:40:21.980Z,1.12
2019-01-29T06:42:53.607Z,1.18
2019-01-29T06:45:25.328Z,1.18
2019-01-29T06:47:56.880Z,1.20
2019-01-29T06:50:28.448Z,1.19
2019-01-29T06:53:00.099Z,1.18
2019-01-29T06:55:31.659Z,1.25
2019-01-29T06:58:03.224Z,1.28
2019-01-29T07:00:34.886Z,1.26
2019-01-29T07:03:06.461Z,1.26
2019-01-29T07:05:38.031Z,1.31
2019-01-29T07:08:09.684Z,1.28
2019-01-29T07:10:41.332Z,1.36
2019-01-29T07:13:12.962Z,1.41
2019-01-29T07:16:01.880Z,1.45
2019-01-29T07:18:55.368Z,1.44
2019-01-29T07:21:27.015Z,1.49
2019-01-29T07:23:58.655Z,1.46
2019-01-29T07:26:30.280Z,1.50
2019-01-29T07:29:01.960Z,1.51
2019-01-29T07:31:34.194Z,1.46
2019-01-29T07:34:06.140Z,1.42
2019-01-29T07:36:37.987Z,1.42
2019-01-29T07:39:13.662Z,1.42
2019-01-29T07:41:45.570Z,1.45
2019-01-29T07:44:17.569Z,1.43
2019-01-29T07:46:51.331Z,1.41
2019-01-29T07:49:23.631Z,1.39
2019-01-29T07:51:55.644Z,1.42
2019-01-29T07:54:33.204Z,1.45
2019-01-29T07:57:00.853Z,1.53
2019-01-29T07:59:33.316Z,1.54
2019-01-29T08:02:05.097Z,1.55
2019-01-29T08:04:36.824Z,1.57
2019-01-29T08:07:08.409Z,1.51
2019-01-29T08:09:40.080Z,1.38
2019-01-29T08:12:11.731Z,1.44
2019-01-29T08:14:43.284Z,1.40
2019-01-29T08:17:14.941Z,1.39
2019-01-29T08:19:46.556Z,1.42
2019-01-29T08:22:19.054Z,1.45
2019-01-29T08:24:51.950Z,1.44
2019-01-29T08:27:23.973Z,1.60
2019-01-29T08:29:56.612Z,1.57
2019-01-29T08:32:28.516Z,1.75
2019-01-29T08:35:00.374Z,1.74
2019-01-29T08:37:32.644Z,1.78
2019-01-29T08:40:04.756Z,1.72
2019-01-29T08:42:36.450Z,1.64
2019-01-29T08:45:08.838Z,1.67
2019-01-29T08:47:42.134Z,1.63
2019-01-29T08:50:16.825Z,1.55
2019-01-29T08:52:48.408Z,1.60
2019-01-29T08:55:25.718Z,1.73
2019-01-29T08:57:58.097Z,1.88
2019-01-29T09:00:30.296Z,1.85
2019-01-29T09:03:02.566Z,1.92
2019-01-29T09:05:34.365Z,1.76
2019-01-29T09:08:06.867Z,1.72
2019-01-29T09:10:38.982Z,1.59
2019-01-29T09:13:10.674Z,1.53
2019-01-29T09:15:42.355Z,1.34
2019-01-29T09:18:17.164Z,1.23
2019-01-29T09:20:51.057Z,1.32
2019-01-29T09:23:23.740Z,1.30
2019-01-29T09:25:55.557Z,1.26
2019-01-29T09:28:29.488Z,1.27
2019-01-29T09:31:01.199Z,1.36
2019-01-29T09:33:32.846Z,1.30
2019-01-29T09:36:04.641Z,1.24
2019-01-29T09:38:36.288Z,1.23
2019-01-29T09:41:07.923Z,1.13
2019-01-29T09:43:39.568Z,1.23
2019-01-29T09:46:11.197Z,1.24
2019-01-29T09:48:43.164Z,1.16
2019-01-29T09:51:14.794Z,1.11
2019-01-29T09:53:46.471Z,0.96
2019-01-29T09:56:18.532Z,0.96
2019-01-29T09:58:50.509Z,1.00
2019-01-29T10:01:22.436Z,1.07
2019-01-29T10:03:54.042Z,1.24
2019-01-29T10:06:25.671Z,1.29
2019-01-29T10:08:57.326Z,1.52
2019-01-29T10:11:28.893Z,1.64
2019-01-29T10:14:00.476Z,1.74
2019-01-29T10:16:32.042Z,1.73
2019-01-29T10:19:03.613Z,1.67
2019-01-29T10:21:35.251Z,1.67
2019-01-29T10:24:07.233Z,1.63
2019-01-29T10:26:38.887Z,1.65
2019-01-29T10:29:10.543Z,1.89
2019-01-29T10:31:42.188Z,1.83
2019-01-29T10:34:13.772Z,2.03
2019-01-29T10:36:45.392Z,1.73
2019-01-29T10:39:16.961Z,1.93
2019-01-29T10:41:48.594Z,1.86
2019-01-29T10:44:20.834Z,1.82
2019-01-29T10:46:52.463Z,1.77
2019-01-29T10:49:24.107Z,1.65
2019-01-29T10:51:55.733Z,1.60
2019-01-29T10:54:27.574Z,2.01
2019-01-29T10:56:59.205Z,2.92
2019-01-29T10:59:30.867Z,2.89
2019-01-29T11:02:02.411Z,2.72
2019-01-29T11:04:34.975Z,3.26
2019-01-29T11:07:06.701Z,3.14
2019-01-29T11:09:38.270Z,3.36
2019-01-29T11:12:09.839Z,3.82
2019-01-29T11:14:41.799Z,3.22
2019-01-29T11:17:13.416Z,2.75
2019-01-29T11:19:45.060Z,2.64
2019-01-29T11:22:16.680Z,2.41
2019-01-29T11:24:48.546Z,2.33
2019-01-29T11:27:20.405Z,2.47
2019-01-29T11:29:52.425Z,2.65
2019-01-29T11:32:24.137Z,2.65
2019-01-29T11:34:55.736Z,2.18
2019-01-29T11:37:27.504Z,2.06
2019-01-29T11:39:59.164Z,1.78
2019-01-29T11:42:31.792Z,1.75
2019-01-29T11:45:03.475Z,1.79
2019-01-29T11:47:35.103Z,1.86
2019-01-29T11:50:07.203Z,1.94
2019-01-29T11:52:38.841Z,1.79
2019-01-29T11:55:10.562Z,1.57
2019-01-29T11:57:42.273Z,1.48
2019-01-29T12:00:19.535Z,1.32
2019-01-29T12:02:51.445Z,1.22
2019-01-29T12:05:23.355Z,1.23
2019-01-29T12:07:55.259Z,1.23
2019-01-29T12:10:27.091Z,1.28
2019-01-29T12:12:58.717Z,1.16
2019-01-29T12:15:30.288Z,1.30
2019-01-29T12:18:01.928Z,1.18
2019-01-29T12:20:33.580Z,1.33
2019-01-29T12:23:05.264Z,1.37
2019-01-29T12:25:36.847Z,1.52
2019-01-29T12:28:09.485Z,1.70
2019-01-29T12:30:41.130Z,1.54
2019-01-29T12:33:12.766Z,1.50
2019-01-29T12:35:44.614Z,1.54
2019-01-29T12:38:16.251Z,1.76
2019-01-29T12:40:47.883Z,2.14
2019-01-29T12:43:19.582Z,2.38
2019-01-29T12:45:51.424Z,3.12
2019-01-29T12:48:23.289Z,3.13
2019-01-29T12:50:59.518Z,3.06
2019-01-29T12:53:38.858Z,2.91
2019-01-29T12:56:10.562Z,2.74
2019-01-29T12:58:42.181Z,2.97
2019-01-29T13:01:13.830Z,2.75
2019-01-29T13:03:45.502Z,2.46
2019-01-29T13:06:19.736Z,2.36
2019-01-29T13:08:58.455Z,2.04
2019-01-29T13:11:34.451Z,1.76
2019-01-29T13:14:08.223Z,1.55
2019-01-29T13:16:40.607Z,1.74
2019-01-29T13:19:12.359Z,2.02
2019-01-29T13:21:44.880Z,1.89
2019-01-29T13:24:17.891Z,1.57
2019-01-29T13:26:49.681Z,1.09
2019-01-29T13:29:21.570Z,0.78
2019-01-29T13:31:53.448Z,0.67
2019-01-29T13:34:25.496Z,0.57
2019-01-29T13:36:57.232Z,0.44
2019-01-29T13:39:28.898Z,0.41
2019-01-29T13:42:00.597Z,0.40
2019-01-29T13:44:32.230Z,0.49
2019-01-29T13:47:10.036Z,0.56
2019-01-29T13:49:41.688Z,0.64
2019-01-29T13:52:13.290Z,0.68
2019-01-29T13:54:46.179Z,0.79
2019-01-29T13:57:19.632Z,1.06
2019-01-29T13:59:51.238Z,0.95
2019-01-29T14:02:22.906Z,1.09
2019-01-29T14:04:55.928Z,1.05
2019-01-29T14:07:28.858Z,1.08
2019-01-29T14:10:02.451Z,1.04
2019-01-29T14:12:35.235Z,0.99
2019-01-29T14:15:08.112Z,0.99
2019-01-29T14:17:40.474Z,1.03
2019-01-29T14:20:15.043Z,1.03
2019-01-29T14:22:46.790Z,1.04
2019-01-29T14:25:18.851Z,1.05
2019-01-29T14:27:57.628Z,1.00
2019-01-29T14:30:31.719Z,1.02
2019-01-29T14:33:03.575Z,1.07
2019-01-29T14:35:35.571Z,1.01
2019-01-29T14:38:48.683Z,0.93
2019-01-29T14:41:21.789Z,0.77
2019-01-29T14:43:58.304Z,0.81
2019-01-29T14:46:29.978Z,0.79
2019-01-29T14:49:01.711Z,0.89
2019-01-29T14:51:34.367Z,0.91
2019-01-29T14:54:05.985Z,0.86
2019-01-29T14:56:37.642Z,0.74
2019-01-29T14:59:09.242Z,0.74
2019-01-29T15:01:40.810Z,0.69
2019-01-29T15:04:12.479Z,0.66
2019-01-29T15:06:44.203Z,0.55
2019-01-29T15:09:17.537Z,0.48
2019-01-29T15:11:49.814Z,0.57
2019-01-29T15:14:21.773Z,0.57
2019-01-29T15:17:01.933Z,0.64
2019-01-29T15:19:34.134Z,0.46
2019-01-29T15:22:05.712Z,0.40
2019-01-29T15:24:37.290Z,0.34
2019-01-29T15:27:08.936Z,0.29
2019-01-29T15:29:40.508Z,0.22
2019-01-29T15:32:12.062Z,0.15
2019-01-29T15:34:43.708Z,0.14
2019-01-29T15:37:15.366Z,0.11
2019-01-29T15:39:47.022Z,0.05
2019-01-29T15:42:18.782Z,0.04
2019-01-29T15:44:50.598Z,0.01
2019-01-29T15:47:22.559Z,0.09
2019-01-29T15:49:54.194Z,0.21
2019-01-29T15:52:25.846Z,0.32
2019-01-29T15:54:57.400Z,0.31
2019-01-29T15:57:29.030Z,0.43
2019-01-29T16:00:00.674Z,0.55
2019-01-29T16:02:32.296Z,0.63
2019-01-29T16:05:03.887Z,0.70
2019-01-29T16:07:36.508Z,0.73
2019-01-29T16:10:09.808Z,0.80
2019-01-29T16:12:41.470Z,0.81
2019-01-29T16:15:14.504Z,0.81
2019-01-29T16:17:46.074Z,0.88
2019-01-29T16:20:19.231Z,0.86
2019-01-29T16:22:50.849Z,0.91
2019-01-29T16:25:22.938Z,0.93
2019-01-29T16:27:54.568Z,1.00
2019-01-29T16:30:27.092Z,1.05
2019-01-29T16:32:58.744Z,1.03
2019-01-29T16:35:31.738Z,1.08
2019-01-29T16:38:03.390Z,1.05
2019-01-29T16:40:35.067Z,1.03
2019-01-29T16:43:07.708Z,1.03
2019-01-29T16:45:39.364Z,1.00
2019-01-29T16:48:11.026Z,1.02
2019-01-29T16:50:42.697Z,0.99
2019-01-29T16:53:14.350Z,1.02
2019-01-29T16:55:45.989Z,0.98
2019-01-29T16:58:26.268Z,0.95
2019-01-29T17:00:58.085Z,0.94
2019-01-29T17:03:30.568Z,0.90
2019-01-29T17:06:02.192Z,0.79
2019-01-29T17:08:33.840Z,0.67
2019-01-29T17:11:06.470Z,0.55
2019-01-29T17:13:38.096Z,0.43
2019-01-29T17:16:09.735Z,0.36
2019-01-29T17:18:41.378Z,0.27
2019-01-29T17:21:12.940Z,0.26
2019-01-29T17:23:44.990Z,0.31
2019-01-29T17:26:16.708Z,0.31
2019-01-29T17:28:48.373Z,0.34
2019-01-29T17:31:20.346Z,0.38
2019-01-29T17:33:52.283Z,0.24
2019-01-29T17:36:24.138Z,0.14
2019-01-29T17:38:56.061Z,0.10
2019-01-29T17:41:27.856Z,0.08
2019-01-29T17:44:01.415Z,0.09
2019-01-29T17:46:34.142Z,0.18
2019-01-29T17:49:05.827Z,0.17
2019-01-29T17:51:37.502Z,0.08
2019-01-29T17:54:10.732Z,0.10
2019-01-29T17:56:43.021Z,0.12
2019-01-29T17:59:14.694Z,0.18
2019-01-29T18:01:46.276Z,0.18
2019-01-29T18:04:18.840Z,0.22
2019-01-29T18:06:50.493Z,0.28
2019-01-29T18:09:22.534Z,0.29
2019-01-29T18:11:54.249Z,0.35
2019-01-29T18:14:26.097Z,0.39
2019-01-29T18:16:57.755Z,0.37
2019-01-29T18:19:29.395Z,0.38
2019-01-29T18:22:01.043Z,0.42
2019-01-29T18:24:32.677Z,0.43
2019-01-29T18:27:04.332Z,0.51
2019-01-29T18:29:35.918Z,0.51
2019-01-29T18:32:07.495Z,0.49
2019-01-29T18:34:39.135Z,0.49
2019-01-29T18:37:10.781Z,0.48
2019-01-29T18:39:42.434Z,0.50
2019-01-29T18:42:14.068Z,0.51
2019-01-29T18:44:45.655Z,0.46
2019-01-29T18:47:17.520Z,0.56
2019-01-29T18:49:49.250Z,0.61
2019-01-29T18:52:21.465Z,0.65
2019-01-29T18:54:57.027Z,0.61
2019-01-29T18:57:31.510Z,0.61
2019-01-29T19:00:04.230Z,0.58
2019-01-29T19:02:36.631Z,0.56
2019-01-29T19:05:10.733Z,0.58
2019-01-29T19:07:44.791Z,0.69
2019-01-29T19:10:17.897Z,0.78
2019-01-29T19:12:50.159Z,0.83
2019-01-29T19:15:23.415Z,0.79
2019-01-29T19:17:56.153Z,0.69
2019-01-29T19:20:33.770Z,0.40
2019-01-29T19:23:05.994Z,0.38
2019-01-29T19:25:38.131Z,0.37
2019-01-29T19:28:21.433Z,0.46
2019-01-29T19:30:47.621Z,0.47
2019-01-29T19:33:20.722Z,0.39
2019-01-29T19:35:52.790Z,0.44
2019-01-29T19:38:25.116Z,0.52
2019-01-29T19:40:59.750Z,0.57
2019-01-29T19:43:33.195Z,0.66
2019-01-29T19:46:05.373Z,0.70
2019-01-29T19:48:37.055Z,0.67
2019-01-29T19:51:10.026Z,0.68
2019-01-29T19:53:42.479Z,0.65
2019-01-29T19:56:14.594Z,0.61
2019-01-29T19:58:46.554Z,0.52
2019-01-29T20:01:19.511Z,0.47
2019-01-29T20:03:51.488Z,0.35
2019-01-29T20:06:23.710Z,0.37
2019-01-29T20:08:57.142Z,0.16
2019-01-29T20:11:30.253Z,0.04
2019-01-29T20:14:04.809Z,-0.06
2019-01-29T20:16:40.788Z,0.03
2019-01-29T20:19:13.033Z,0.14
2019-01-29T20:21:45.166Z,-0.06
2019-01-29T20:24:18.423Z,-0.04
2019-01-29T20:26:51.052Z,-0.02
2019-01-29T20:29:25.469Z,0.09
2019-01-29T20:31:57.442Z,0.07
2019-01-29T20:34:30.485Z,0.13
2019-01-29T20:37:05.425Z,0.28
2019-01-29T20:39:37.998Z,0.28
2019-01-29T20:42:10.764Z,0.43
2019-01-29T20:44:43.525Z,0.50
2019-01-29T20:47:17.643Z,0.64
2019-01-29T20:49:51.612Z,0.70
2019-01-29T20:52:23.909Z,0.72
2019-01-29T20:54:56.345Z,0.73
2019-01-29T20:57:49.158Z,0.80
2019-01-29T21:00:28.922Z,0.79
2019-01-29T21:03:01.329Z,0.84
2019-01-29T21:05:33.041Z,0.79
2019-01-29T21:08:06.079Z,0.77
2019-01-29T21:10:38.026Z,0.75
2019-01-29T21:13:10.889Z,0.71
2019-01-29T21:15:44.379Z,0.74
2019-01-29T21:18:16.096Z,0.82
2019-01-29T21:20:56.652Z,0.81
2019-01-29T21:23:21.314Z,0.76
2019-01-29T21:25:52.992Z,0.79
2019-01-29T21:28:24.836Z,0.83
2019-01-29T21:30:56.558Z,0.88
2019-01-29T21:33:28.322Z,0.89
2019-01-29T21:36:00.074Z,0.83
2019-01-29T21:38:31.757Z,0.77
2019-01-29T21:41:03.500Z,0.76
2019-01-29T21:43:35.468Z,0.66
2019-01-29T21:46:07.147Z,0.70
2019-01-29T21:48:38.851Z,0.69
2019-01-29T21:51:10.546Z,0.74
2019-01-29T21:53:42.264Z,0.72
2019-01-29T21:56:14.021Z,0.69
2019-01-29T21:58:45.702Z,0.75
2019-01-29T22:01:17.443Z,0.82
2019-01-29T22:03:49.127Z,0.79
2019-01-29T22:06:21.569Z,0.84
2019-01-29T22:08:53.167Z,0.86
2019-01-29T22:11:24.891Z,0.85
2019-01-29T22:13:56.644Z,0.79
2019-01-29T22:16:28.302Z,0.66
2019-01-29T22:18:59.978Z,0.73
2019-01-29T22:21:31.642Z,0.73
2019-01-29T22:24:03.300Z,0.74
2019-01-29T22:26:35.948Z,0.85
2019-01-29T22:29:07.987Z,0.84
2019-01-29T22:31:39.572Z,0.71
2019-01-29T22:34:11.227Z,0.79
2019-01-29T22:36:42.883Z,0.81
2019-01-29T22:39:14.550Z,0.84
2019-01-29T22:41:46.201Z,0.79
2019-01-29T22:44:17.867Z,0.81
2019-01-29T22:46:49.450Z,0.92
2019-01-29T22:49:21.571Z,0.94
2019-01-29T22:51:53.222Z,0.97
2019-01-29T22:54:24.783Z,0.97
2019-01-29T22:56:56.552Z,0.97
2019-01-29T22:59:33.454Z,0.92
2019-01-29T23:02:01.548Z,0.90
2019-01-29T23:04:43.211Z,0.86
2019-01-29T23:07:23.593Z,0.88
2019-01-29T23:09:55.614Z,0.91
2019-01-29T23:12:27.562Z,0.94
2019-01-29T23:14:59.387Z,0.93
2019-01-29T23:17:31.038Z,0.90
2019-01-29T23:20:02.690Z,1.01
2019-01-29T23:22:34.439Z,1.07
2019-01-29T23:25:06.644Z,1.07
2019-01-29T23:27:38.285Z,1.06
2019-01-29T23:30:13.445Z,1.07
2019-01-29T23:32:45.094Z,1.03
2019-01-29T23:35:16.718Z,0.95
2019-01-29T23:37:48.404Z,0.81
2019-01-29T23:40:21.504Z,0.81
2019-01-29T23:42:53.083Z,0.85
2019-01-29T23:45:24.730Z,0.90
2019-01-29T23:48:02.404Z,0.88
2019-01-29T23:50:34.137Z,0.90
2019-01-29T23:53:05.760Z,0.95
2019-01-29T23:55:37.403Z,1.01
2019-01-29T23:58:09.042Z,0.96
